createdAt,value
2018-05-23T00:02:05.174Z,15.80
2018-05-23T00:04:32.623Z,15.80
2018-05-23T00:07:00.051Z,15.80
2018-05-23T00:09:28.262Z,15.80
2018-05-23T00:11:55.700Z,15.70
2018-05-23T00:14:23.900Z,15.80
2018-05-23T00:16:51.343Z,15.80
2018-05-23T00:19:18.776Z,15.70
2018-05-23T00:21:46.966Z,15.70
2018-05-23T00:24:14.407Z,15.70
2018-05-23T00:26:42.598Z,15.70
2018-05-23T00:29:10.032Z,15.70
2018-05-23T00:31:37.463Z,15.70
2018-05-23T00:34:04.914Z,15.70
2018-05-23T00:36:32.346Z,15.60
2018-05-23T00:38:59.779Z,15.60
2018-05-23T00:41:27.208Z,15.60
2018-05-23T00:43:54.670Z,15.60
2018-05-23T00:46:22.118Z,15.50
2018-05-23T00:48:49.546Z,15.40
2018-05-23T00:51:16.987Z,15.50
2018-05-23T00:53:44.422Z,15.40
2018-05-23T00:56:11.850Z,15.40
2018-05-23T00:58:39.282Z,15.40
2018-05-23T01:01:06.726Z,15.30
2018-05-23T01:03:34.172Z,15.20
2018-05-23T01:06:01.626Z,15.20
2018-05-23T01:08:29.073Z,15.20
2018-05-23T01:10:57.257Z,15.30
2018-05-23T01:13:24.699Z,15.20
2018-05-23T01:15:52.186Z,15.20
2018-05-23T01:18:19.621Z,15.30
2018-05-23T01:20:47.055Z,15.30
2018-05-23T01:23:15.263Z,15.30
2018-05-23T01:25:42.707Z,15.20
2018-05-23T01:28:10.130Z,15.30
2018-05-23T01:30:37.578Z,15.30
2018-05-23T01:33:05.007Z,15.20
2018-05-23T01:35:33.214Z,15.20
2018-05-23T01:38:00.656Z,15.20
2018-05-23T01:40:28.086Z,15.10
2018-05-23T01:42:55.523Z,15.10
2018-05-23T01:45:22.958Z,15.10
2018-05-23T01:47:51.168Z,15.10
2018-05-23T01:50:18.610Z,15.10
2018-05-23T01:52:46.033Z,15.10
2018-05-23T01:55:13.477Z,15.10
2018-05-23T01:57:40.912Z,15.10
2018-05-23T02:00:08.435Z,15.10
2018-05-23T02:02:35.775Z,15.10
2018-05-23T02:05:03.980Z,15.10
2018-05-23T02:07:31.427Z,15.00
2018-05-23T02:09:58.872Z,15.00
2018-05-23T02:12:27.139Z,15.00
2018-05-23T02:14:54.495Z,15.00
2018-05-23T02:17:22.694Z,15.00
2018-05-23T02:19:50.134Z,15.00
2018-05-23T02:22:18.339Z,14.90
2018-05-23T02:24:45.778Z,15.00
2018-05-23T02:27:13.218Z,15.00
2018-05-23T02:29:41.426Z,14.90
2018-05-23T02:32:08.861Z,14.90
2018-05-23T02:34:36.310Z,14.90
2018-05-23T02:37:03.752Z,14.90
2018-05-23T02:39:31.180Z,14.90
2018-05-23T02:41:58.678Z,15.00
2018-05-23T02:44:26.046Z,14.90
2018-05-23T02:46:53.466Z,15.00
2018-05-23T02:49:20.906Z,15.00
2018-05-23T02:51:48.349Z,15.00
2018-05-23T02:54:16.554Z,15.00
2018-05-23T02:56:44.028Z,15.00
2018-05-23T02:59:12.238Z,15.10
2018-05-23T03:01:39.669Z,15.10
2018-05-23T03:04:07.879Z,15.10
2018-05-23T03:06:35.311Z,15.10
2018-05-23T03:09:02.754Z,15.00
2018-05-23T03:11:30.964Z,15.10
2018-05-23T03:13:58.389Z,15.10
2018-05-23T03:16:26.589Z,15.10
2018-05-23T03:18:54.015Z,15.10
2018-05-23T03:21:22.211Z,15.10
2018-05-23T03:23:49.671Z,15.00
2018-05-23T03:26:17.091Z,15.10
2018-05-23T03:28:44.510Z,15.10
2018-05-23T03:31:11.953Z,15.10
2018-05-23T03:33:39.382Z,15.10
2018-05-23T03:36:07.588Z,15.10
2018-05-23T03:38:35.015Z,15.10
2018-05-23T03:41:03.215Z,15.10
2018-05-23T03:43:30.638Z,15.10
2018-05-23T03:45:58.847Z,15.00
2018-05-23T03:48:26.277Z,15.00
2018-05-23T03:50:54.483Z,15.00
2018-05-23T03:53:21.927Z,15.00
2018-05-23T03:55:49.358Z,15.10
2018-05-23T03:58:17.564Z,15.10
2018-05-23T04:00:56.892Z,15.10
2018-05-23T04:03:36.002Z,15.10
2018-05-23T04:06:16.042Z,15.10
2018-05-23T04:08:44.246Z,15.20
2018-05-23T04:11:11.679Z,15.20
2018-05-23T04:13:39.881Z,15.30
2018-05-23T04:16:07.311Z,15.30
2018-05-23T04:18:35.510Z,15.40
2018-05-23T04:21:02.943Z,15.30
2018-05-23T04:23:31.174Z,15.40
2018-05-23T04:25:58.615Z,15.40
2018-05-23T04:28:26.050Z,15.40
2018-05-23T04:30:53.496Z,15.50
2018-05-23T04:33:21.690Z,15.50
2018-05-23T04:35:49.170Z,15.50
2018-05-23T04:38:16.627Z,15.60
2018-05-23T04:40:44.061Z,15.60
2018-05-23T04:43:11.539Z,15.60
2018-05-23T04:45:38.974Z,15.70
2018-05-23T04:48:06.398Z,15.70
2018-05-23T04:50:33.842Z,15.70
2018-05-23T04:53:01.284Z,15.70
2018-05-23T04:55:28.713Z,15.70
2018-05-23T04:57:56.143Z,15.80
2018-05-23T05:00:24.360Z,15.80
2018-05-23T05:02:51.784Z,15.80
2018-05-23T05:05:19.214Z,15.80
2018-05-23T05:07:47.415Z,15.90
2018-05-23T05:10:14.840Z,15.80
2018-05-23T05:12:42.266Z,15.90
2018-05-23T05:15:09.705Z,15.90
2018-05-23T05:17:37.211Z,16.00
2018-05-23T05:20:04.648Z,16.00
2018-05-23T05:22:32.076Z,16.00
2018-05-23T05:24:59.607Z,16.00
2018-05-23T05:27:26.952Z,16.10
2018-05-23T05:29:55.154Z,16.10
2018-05-23T05:32:22.590Z,16.10
2018-05-23T05:34:50.853Z,16.10
2018-05-23T05:37:19.053Z,16.10
2018-05-23T05:39:46.492Z,16.00
2018-05-23T05:42:14.689Z,16.10
2018-05-23T05:44:42.126Z,16.10
2018-05-23T05:47:10.319Z,16.20
2018-05-23T05:49:37.748Z,16.20
2018-05-23T05:52:06.022Z,16.30
2018-05-23T05:54:33.449Z,16.30
2018-05-23T05:57:00.947Z,16.40
2018-05-23T05:59:29.147Z,16.60
2018-05-23T06:01:56.610Z,16.50
2018-05-23T06:04:24.789Z,16.70
2018-05-23T06:06:52.218Z,16.70
2018-05-23T06:09:19.654Z,16.80
2018-05-23T06:11:47.098Z,16.80
2018-05-23T06:14:14.522Z,16.90
2018-05-23T06:16:41.959Z,16.90
2018-05-23T06:19:09.391Z,16.90
2018-05-23T06:21:37.595Z,17.00
2018-05-23T06:24:05.022Z,16.90
2018-05-23T06:26:33.297Z,17.00
2018-05-23T06:29:01.501Z,17.10
2018-05-23T06:31:28.934Z,17.00
2018-05-23T06:33:57.177Z,17.10
2018-05-23T06:36:24.627Z,17.10
2018-05-23T06:38:52.060Z,17.20
2018-05-23T06:41:19.578Z,17.20
2018-05-23T06:43:47.788Z,17.20
2018-05-23T06:46:15.217Z,17.20
2018-05-23T06:48:43.422Z,17.30
2018-05-23T06:51:10.854Z,17.20
2018-05-23T06:53:39.064Z,17.30
2018-05-23T06:56:06.504Z,17.30
2018-05-23T06:58:33.938Z,17.30
2018-05-23T07:01:02.161Z,17.30
2018-05-23T07:03:29.577Z,17.30
2018-05-23T07:05:57.032Z,17.40
2018-05-23T07:08:25.223Z,17.40
2018-05-23T07:10:52.663Z,17.40
2018-05-23T07:13:20.874Z,17.50
2018-05-23T07:15:48.381Z,17.50
2018-05-23T07:18:16.587Z,17.60
2018-05-23T07:20:44.021Z,17.60
2018-05-23T07:23:12.231Z,17.70
2018-05-23T07:25:39.685Z,17.70
2018-05-23T07:28:07.102Z,17.70
2018-05-23T07:30:35.311Z,17.80
2018-05-23T07:33:02.749Z,17.80
2018-05-23T07:35:30.951Z,17.80
2018-05-23T07:37:58.384Z,17.80
2018-05-23T07:40:26.590Z,17.80
2018-05-23T07:42:54.027Z,17.80
2018-05-23T07:45:21.461Z,17.80
2018-05-23T07:47:49.763Z,17.80
2018-05-23T07:50:17.951Z,17.90
2018-05-23T07:52:45.459Z,17.80
2018-05-23T07:55:12.894Z,17.90
2018-05-23T07:57:40.330Z,17.90
2018-05-23T08:00:07.759Z,18.00
2018-05-23T08:02:35.194Z,18.10
2018-05-23T08:05:03.494Z,18.30
2018-05-23T08:07:30.939Z,18.30
2018-05-23T08:09:59.139Z,18.60
2018-05-23T08:12:26.569Z,18.60
2018-05-23T08:14:54.773Z,18.70
2018-05-23T08:17:22.218Z,18.70
2018-05-23T08:19:49.646Z,18.80
2018-05-23T08:22:17.857Z,19.10
2018-05-23T08:24:45.287Z,19.10
2018-05-23T08:27:13.551Z,19.20
2018-05-23T08:29:41.911Z,19.40
2018-05-23T08:32:09.262Z,19.30
2018-05-23T08:34:36.695Z,19.50
2018-05-23T08:37:04.136Z,19.60
2018-05-23T08:39:31.565Z,19.80
2018-05-23T08:41:59.769Z,20.10
2018-05-23T08:44:27.207Z,20.00
2018-05-23T08:46:54.711Z,20.20
2018-05-23T08:49:22.070Z,20.30
2018-05-23T08:51:49.508Z,20.60
2018-05-23T08:54:17.017Z,21.00
2018-05-23T08:56:44.483Z,21.30
2018-05-23T08:59:12.687Z,21.70
2018-05-23T09:01:40.121Z,21.70
2018-05-23T09:04:07.561Z,21.80
2018-05-23T09:06:35.767Z,22.30
2018-05-23T09:09:03.207Z,22.30
2018-05-23T09:11:33.164Z,23.00
2018-05-23T09:14:01.079Z,23.00
2018-05-23T09:16:29.301Z,23.60
2018-05-23T09:18:56.727Z,23.50
2018-05-23T09:21:24.181Z,23.90
2018-05-23T09:23:52.384Z,24.70
2018-05-23T09:26:19.821Z,24.70
2018-05-23T09:28:47.253Z,24.80
2018-05-23T09:31:15.457Z,25.20
2018-05-23T09:33:42.902Z,25.10
2018-05-23T09:36:11.116Z,25.80
2018-05-23T09:38:38.547Z,25.80
2018-05-23T09:41:06.009Z,25.80
2018-05-23T09:43:34.455Z,26.20
2018-05-23T09:46:02.670Z,26.70
2018-05-23T09:48:30.111Z,26.60
2018-05-23T09:50:57.554Z,26.90
2018-05-23T09:53:25.759Z,27.40
2018-05-23T09:55:53.210Z,27.40
2018-05-23T09:58:20.630Z,27.60
2018-05-23T10:00:48.830Z,27.60
2018-05-23T10:03:16.272Z,27.60
2018-05-23T10:05:44.472Z,27.90
2018-05-23T10:08:11.894Z,27.90
2018-05-23T10:10:40.112Z,27.80
2018-05-23T10:13:07.559Z,27.80
2018-05-23T10:15:34.979Z,27.80
2018-05-23T10:18:02.427Z,27.80
2018-05-23T10:20:29.861Z,27.40
2018-05-23T10:22:57.289Z,27.50
2018-05-23T10:25:24.723Z,27.70
2018-05-23T10:27:52.986Z,27.80
2018-05-23T10:30:20.414Z,27.80
2018-05-23T10:32:47.863Z,27.60
2018-05-23T10:35:15.297Z,27.90
2018-05-23T10:37:42.751Z,27.50
2018-05-23T10:40:10.218Z,27.30
2018-05-23T10:42:37.644Z,27.50
2018-05-23T10:45:05.834Z,28.00
2018-05-23T10:47:33.267Z,28.00
2018-05-23T10:50:01.468Z,28.20
2018-05-23T10:52:28.931Z,28.20
2018-05-23T10:54:56.345Z,28.00
2018-05-23T10:57:24.555Z,27.80
2018-05-23T10:59:51.982Z,27.80
2018-05-23T11:02:20.186Z,27.40
2018-05-23T11:04:47.676Z,27.40
2018-05-23T11:07:15.163Z,27.40
2018-05-23T11:09:43.407Z,27.40
2018-05-23T11:12:10.910Z,27.40
2018-05-23T11:14:38.390Z,27.30
2018-05-23T11:17:05.866Z,27.40
2018-05-23T11:19:33.430Z,27.50
2018-05-23T11:22:00.919Z,27.60
2018-05-23T11:24:28.409Z,27.60
2018-05-23T11:26:55.887Z,27.30
2018-05-23T11:29:23.359Z,27.00
2018-05-23T11:31:50.916Z,27.10
2018-05-23T11:34:18.360Z,27.20
2018-05-23T11:36:45.891Z,27.10
2018-05-23T11:39:13.379Z,27.20
2018-05-23T11:41:41.579Z,26.90
2018-05-23T11:44:09.079Z,26.90
2018-05-23T11:46:36.534Z,26.70
2018-05-23T11:49:03.942Z,26.90
2018-05-23T11:51:31.374Z,26.70
2018-05-23T11:53:58.802Z,26.60
2018-05-23T11:56:26.254Z,26.50
2018-05-23T11:58:53.681Z,26.60
2018-05-23T12:01:21.128Z,26.70
2018-05-23T12:03:48.540Z,26.80
2018-05-23T12:06:16.764Z,27.00
2018-05-23T12:08:44.197Z,27.00
2018-05-23T12:11:11.643Z,27.10
2018-05-23T12:13:39.070Z,27.20
2018-05-23T12:16:06.508Z,27.30
2018-05-23T12:18:33.942Z,26.80
2018-05-23T12:21:01.385Z,26.90
2018-05-23T12:23:28.814Z,26.60
2018-05-23T12:25:57.023Z,26.60
2018-05-23T12:28:24.450Z,26.60
2018-05-23T12:30:52.661Z,26.50
2018-05-23T12:33:20.105Z,26.50
2018-05-23T12:35:47.537Z,26.50
2018-05-23T12:38:15.745Z,26.70
2018-05-23T12:40:43.184Z,26.60
2018-05-23T12:43:11.377Z,26.50
2018-05-23T12:45:38.798Z,26.50
2018-05-23T12:48:07.003Z,26.60
2018-05-23T12:50:34.417Z,26.50
2018-05-23T12:53:02.617Z,26.70
2018-05-23T12:55:30.056Z,26.70
2018-05-23T12:57:58.261Z,26.70
2018-05-23T13:00:25.690Z,26.70
2018-05-23T13:02:53.899Z,26.80
2018-05-23T13:05:21.340Z,26.80
2018-05-23T13:07:48.782Z,26.90
2018-05-23T13:10:16.978Z,27.10
2018-05-23T13:12:44.492Z,27.00
2018-05-23T13:15:12.621Z,26.80
2018-05-23T13:17:40.066Z,26.80
2018-05-23T13:20:07.486Z,26.70
2018-05-23T13:22:34.925Z,26.70
2018-05-23T13:25:02.349Z,26.70
2018-05-23T13:27:29.783Z,26.70
2018-05-23T13:29:57.228Z,26.80
2018-05-23T13:32:25.437Z,26.80
2018-05-23T13:34:52.875Z,26.80
2018-05-23T13:37:20.332Z,26.70
2018-05-23T13:39:47.768Z,26.70
2018-05-23T13:42:15.746Z,26.70
2018-05-23T13:44:43.953Z,26.90
2018-05-23T13:47:11.391Z,26.80
2018-05-23T13:49:38.821Z,26.90
2018-05-23T13:52:06.299Z,26.80
2018-05-23T13:54:33.678Z,26.70
2018-05-23T13:57:01.114Z,26.70
2018-05-23T13:59:28.541Z,26.50
2018-05-23T14:01:56.034Z,26.20
2018-05-23T14:04:23.412Z,26.20
2018-05-23T14:06:50.841Z,26.10
2018-05-23T14:09:18.270Z,26.00
2018-05-23T14:11:45.705Z,26.00
2018-05-23T14:14:13.139Z,25.90
2018-05-23T14:16:40.570Z,25.60
2018-05-23T14:19:08.093Z,25.60
2018-05-23T14:21:36.205Z,25.40
2018-05-23T14:24:03.635Z,25.40
2018-05-23T14:26:31.843Z,25.30
2018-05-23T14:28:59.362Z,25.30
2018-05-23T14:31:26.789Z,25.40
2018-05-23T14:33:54.279Z,25.40
2018-05-23T14:36:23.759Z,25.40
2018-05-23T14:38:51.254Z,25.50
2018-05-23T14:41:19.556Z,25.40
2018-05-23T14:43:47.111Z,25.30
2018-05-23T14:46:14.494Z,25.20
2018-05-23T14:48:44.263Z,24.90
2018-05-23T14:51:12.458Z,24.60
2018-05-23T14:53:40.930Z,24.60
2018-05-23T14:56:13.543Z,24.30
2018-05-23T14:58:41.689Z,23.40
2018-05-23T15:01:09.114Z,23.40
2018-05-23T15:03:37.318Z,22.70
2018-05-23T15:06:04.763Z,22.60
2018-05-23T15:08:33.004Z,22.50
2018-05-23T15:11:00.478Z,22.40
2018-05-23T15:13:27.914Z,22.10
2018-05-23T15:15:55.347Z,22.00
2018-05-23T15:18:24.077Z,22.00
2018-05-23T15:20:52.278Z,21.80
2018-05-23T15:23:19.714Z,21.80
2018-05-23T15:25:47.914Z,21.70
2018-05-23T15:28:15.330Z,21.60
2018-05-23T15:30:42.766Z,21.50
2018-05-23T15:33:10.201Z,21.60
2018-05-23T15:35:37.640Z,21.50
2018-05-23T15:38:05.068Z,21.60
2018-05-23T15:40:33.272Z,21.40
2018-05-23T15:43:00.720Z,21.40
2018-05-23T15:45:28.151Z,21.30
2018-05-23T15:47:55.618Z,21.30
2018-05-23T15:50:23.027Z,21.30
2018-05-23T15:52:50.458Z,21.20
2018-05-23T15:55:17.899Z,21.10
2018-05-23T15:57:46.109Z,21.00
2018-05-23T16:00:13.530Z,21.00
2018-05-23T16:02:45.450Z,20.90
2018-05-23T16:05:13.237Z,20.90
2018-05-23T16:07:41.446Z,20.80
2018-05-23T16:10:09.470Z,20.80
2018-05-23T16:12:37.002Z,20.70
2018-05-23T16:15:04.515Z,20.80
2018-05-23T16:17:33.239Z,20.80
2018-05-23T16:20:00.848Z,20.80
2018-05-23T16:22:28.258Z,20.70
2018-05-23T16:24:55.691Z,20.60
2018-05-23T16:27:27.078Z,20.60
2018-05-23T16:29:54.551Z,20.60
2018-05-23T16:32:21.980Z,20.50
2018-05-23T16:34:49.567Z,20.40
2018-05-23T16:37:17.631Z,20.40
2018-05-23T16:39:45.109Z,20.40
2018-05-23T16:42:12.537Z,20.40
2018-05-23T16:44:40.075Z,20.40
2018-05-23T16:47:07.511Z,20.40
2018-05-23T16:49:36.571Z,20.00
2018-05-23T16:52:05.267Z,19.90
2018-05-23T16:54:32.679Z,19.80
2018-05-23T16:57:00.110Z,19.70
2018-05-23T16:59:27.584Z,19.50
2018-05-23T17:01:55.148Z,19.40
2018-05-23T17:04:22.588Z,19.30
2018-05-23T17:06:50.098Z,19.30
2018-05-23T17:09:17.660Z,19.40
2018-05-23T17:11:45.130Z,19.30
2018-05-23T17:14:12.561Z,19.30
2018-05-23T17:16:39.993Z,19.40
2018-05-23T17:19:07.452Z,19.40
2018-05-23T17:21:34.983Z,19.30
2018-05-23T17:24:02.419Z,19.30
2018-05-23T17:26:29.852Z,19.20
2018-05-23T17:28:57.297Z,19.20
2018-05-23T17:31:24.726Z,19.20
2018-05-23T17:33:52.170Z,19.10
2018-05-23T17:36:19.618Z,19.10
2018-05-23T17:38:47.810Z,19.20
2018-05-23T17:41:15.250Z,19.20
2018-05-23T17:43:43.491Z,19.20
2018-05-23T17:46:10.977Z,19.10
2018-05-23T17:48:38.392Z,19.10
2018-05-23T17:51:05.825Z,19.20
2018-05-23T17:53:33.256Z,19.10
2018-05-23T17:56:01.523Z,19.20
2018-05-23T17:58:29.798Z,19.20
2018-05-23T18:00:58.079Z,19.20
2018-05-23T18:03:26.274Z,19.30
2018-05-23T18:05:53.730Z,19.20
2018-05-23T18:08:21.982Z,19.30
2018-05-23T18:10:50.259Z,19.30
2018-05-23T18:13:18.462Z,19.30
2018-05-23T18:15:45.901Z,19.30
2018-05-23T18:18:14.110Z,19.40
2018-05-23T18:20:46.029Z,19.30
2018-05-23T18:23:13.481Z,19.40
2018-05-23T18:25:41.774Z,19.30
2018-05-23T18:28:10.034Z,19.30
2018-05-23T18:30:37.407Z,19.30
2018-05-23T18:33:05.658Z,19.30
2018-05-23T18:35:33.102Z,19.30
2018-05-23T18:38:00.533Z,19.30
2018-05-23T18:40:27.979Z,19.30
2018-05-23T18:42:55.418Z,19.30
2018-05-23T18:45:22.846Z,19.30
2018-05-23T18:47:50.286Z,19.30
2018-05-23T18:50:17.718Z,19.20
2018-05-23T18:52:45.160Z,19.30
2018-05-23T18:55:12.592Z,19.20
2018-05-23T18:57:40.786Z,19.20
2018-05-23T19:00:08.223Z,19.10
2018-05-23T19:02:36.490Z,19.00
2018-05-23T19:05:04.740Z,19.00
2018-05-23T19:07:32.124Z,19.00
2018-05-23T19:10:00.324Z,18.90
2018-05-23T19:12:27.758Z,18.90
2018-05-23T19:14:55.952Z,18.90
2018-05-23T19:17:23.388Z,18.90
2018-05-23T19:19:51.772Z,18.80
2018-05-23T19:22:19.028Z,18.70
2018-05-23T19:24:47.232Z,18.70
2018-05-23T19:27:14.670Z,18.70
2018-05-23T19:29:42.097Z,18.70
2018-05-23T19:32:10.302Z,18.70
2018-05-23T19:34:37.742Z,18.60
2018-05-23T19:37:05.946Z,18.60
2018-05-23T19:39:33.370Z,18.60
2018-05-23T19:42:01.580Z,18.50
2018-05-23T19:44:29.014Z,18.50
2018-05-23T19:46:56.459Z,18.60
2018-05-23T19:49:24.659Z,18.50
2018-05-23T19:51:52.102Z,18.50
2018-05-23T19:54:19.543Z,18.50
2018-05-23T19:56:47.753Z,18.40
2018-05-23T19:59:15.188Z,18.40
2018-05-23T20:01:43.387Z,18.50
2018-05-23T20:04:10.818Z,18.40
2018-05-23T20:06:39.016Z,18.40
2018-05-23T20:09:06.453Z,18.40
2018-05-23T20:11:33.886Z,18.40
2018-05-23T20:14:01.418Z,18.30
2018-05-23T20:16:28.754Z,18.30
2018-05-23T20:18:56.206Z,18.30
2018-05-23T20:21:23.639Z,18.30
2018-05-23T20:23:51.082Z,18.20
2018-05-23T20:26:19.283Z,18.20
2018-05-23T20:28:46.721Z,18.20
2018-05-23T20:31:14.924Z,18.10
2018-05-23T20:33:42.363Z,18.10
2018-05-23T20:36:09.815Z,18.10
2018-05-23T20:38:38.017Z,18.20
2018-05-23T20:41:05.441Z,18.10
2018-05-23T20:43:33.660Z,18.10
2018-05-23T20:46:01.099Z,18.10
2018-05-23T20:48:28.535Z,18.00
2018-05-23T20:50:56.736Z,18.00
2018-05-23T20:53:24.174Z,18.00
2018-05-23T20:55:51.617Z,17.90
2018-05-23T20:58:19.816Z,17.90
2018-05-23T21:00:47.243Z,17.80
2018-05-23T21:03:15.472Z,17.80
2018-05-23T21:05:42.967Z,17.80
2018-05-23T21:08:10.339Z,17.80
2018-05-23T21:10:38.547Z,17.70
2018-05-23T21:13:05.979Z,17.70
2018-05-23T21:15:33.420Z,17.60
2018-05-23T21:18:01.618Z,17.60
2018-05-23T21:20:29.067Z,17.60
2018-05-23T21:22:57.263Z,17.60
2018-05-23T21:25:24.697Z,17.60
2018-05-23T21:27:52.182Z,17.70
2018-05-23T21:30:20.334Z,17.60
2018-05-23T21:32:47.769Z,17.60
2018-05-23T21:35:15.991Z,17.60
2018-05-23T21:37:43.423Z,17.60
2018-05-23T21:40:10.863Z,17.60
2018-05-23T21:42:39.062Z,17.60
2018-05-23T21:45:06.505Z,17.60
2018-05-23T21:47:34.703Z,17.70
2018-05-23T21:50:02.143Z,17.70
2018-05-23T21:52:29.570Z,17.70
2018-05-23T21:54:57.010Z,17.70
2018-05-23T21:57:24.462Z,17.70
2018-05-23T21:59:51.908Z,17.70
2018-05-23T22:02:19.345Z,17.70
2018-05-23T22:04:46.774Z,17.70
2018-05-23T22:07:14.206Z,17.70
2018-05-23T22:09:41.644Z,17.60
2018-05-23T22:12:09.086Z,17.70
2018-05-23T22:14:36.509Z,17.70
2018-05-23T22:17:03.938Z,17.70
2018-05-23T22:19:31.375Z,17.70
2018-05-23T22:21:58.802Z,17.70
2018-05-23T22:24:26.240Z,17.70
2018-05-23T22:26:53.670Z,17.70
2018-05-23T22:29:21.887Z,17.60
2018-05-23T22:31:49.314Z,17.60
2018-05-23T22:34:17.526Z,17.50
2018-05-23T22:36:44.976Z,17.50
2018-05-23T22:39:12.422Z,17.50
2018-05-23T22:41:39.854Z,17.50
2018-05-23T22:44:08.065Z,17.40
2018-05-23T22:46:35.499Z,17.40
2018-05-23T22:49:02.943Z,17.40
2018-05-23T22:51:31.137Z,17.40
2018-05-23T22:53:58.583Z,17.40
2018-05-23T22:56:26.786Z,17.50
2018-05-23T22:58:54.226Z,17.40
2018-05-23T23:01:21.655Z,17.50
2018-05-23T23:03:49.860Z,17.40
2018-05-23T23:06:17.291Z,17.40
2018-05-23T23:08:45.515Z,17.40
2018-05-23T23:11:12.957Z,17.30
2018-05-23T23:13:40.386Z,17.40
2018-05-23T23:16:08.581Z,17.40
2018-05-23T23:18:36.019Z,17.30
2018-05-23T23:21:04.561Z,17.40
2018-05-23T23:23:32.008Z,17.40
2018-05-23T23:25:59.455Z,17.50
2018-05-23T23:28:26.889Z,17.50
2018-05-23T23:30:54.326Z,17.50
2018-05-23T23:33:22.522Z,17.50
2018-05-23T23:35:49.957Z,17.50
2018-05-23T23:38:18.152Z,17.50
2018-05-23T23:40:45.586Z,17.50
2018-05-23T23:43:13.787Z,17.60
2018-05-23T23:45:41.222Z,17.60
2018-05-23T23:48:09.424Z,17.70
2018-05-23T23:50:36.858Z,17.60
2018-05-23T23:53:05.056Z,17.70
2018-05-23T23:55:32.494Z,17.70
2018-05-23T23:57:59.934Z,17.70
